sensor_id;sensor_type;location;lat;lon;timestamp;temperature;humidity
3071;DHT22;1546;47.208;9.038;2023-03-01T00:00:52;2.50;99.00
3071;DHT22;1546;47.208;9.038;2023-03-01T00:03:19;2.50;98.90
3071;DHT22;1546;47.208;9.038;2023-03-01T00:05:47;2.70;98.80
3071;DHT22;1546;47.208;9.038;2023-03-01T00:08:14;2.70;98.10
3071;DHT22;1546;47.208;9.038;2023-03-01T00:10:41;2.60;98.20
3071;DHT22;1546;47.208;9.038;2023-03-01T00:13:08;2.70;98.20
3071;DHT22;1546;47.208;9.038;2023-03-01T00:15:38;2.70;98.10
3071;DHT22;1546;47.208;9.038;2023-03-01T00:18:05;2.90;98.00
3071;DHT22;1546;47.208;9.038;2023-03-01T00:20:32;2.90;97.50
3071;DHT22;1546;47.208;9.038;2023-03-01T00:23:00;2.80;97.90
3071;DHT22;1546;47.208;9.038;2023-03-01T00:25:27;2.90;98.10
3071;DHT22;1546;47.208;9.038;2023-03-01T00:27:54;2.90;98.10
3071;DHT22;1546;47.208;9.038;2023-03-01T00:30:21;2.90;98.10
3071;DHT22;1546;47.208;9.038;2023-03-01T00:32:47;2.90;97.80
3071;DHT22;1546;47.208;9.038;2023-03-01T00:35:14;2.90;97.90
3071;DHT22;1546;47.208;9.038;2023-03-01T00:37:41;2.90;98.00
3071;DHT22;1546;47.208;9.038;2023-03-01T00:40:11;2.90;98.00
3071;DHT22;1546;47.208;9.038;2023-03-01T00:42:38;3.00;98.10
3071;DHT22;1546;47.208;9.038;2023-03-01T00:45:06;3.00;98.10
3071;DHT22;1546;47.208;9.038;2023-03-01T00:47:33;3.10;98.10
3071;DHT22;1546;47.208;9.038;2023-03-01T00:50:00;3.10;97.60
3071;DHT22;1546;47.208;9.038;2023-03-01T00:52:27;3.00;97.40
3071;DHT22;1546;47.208;9.038;2023-03-01T00:54:54;3.00;97.00
3071;DHT22;1546;47.208;9.038;2023-03-01T00:57:22;2.80;96.90
3071;DHT22;1546;47.208;9.038;2023-03-01T00:59:49;2.90;97.00
3071;DHT22;1546;47.208;9.038;2023-03-01T01:02:18;2.90;97.00
3071;DHT22;1546;47.208;9.038;2023-03-01T01:04:44;2.80;97.60
3071;DHT22;1546;47.208;9.038;2023-03-01T01:07:11;2.90;97.60
3071;DHT22;1546;47.208;9.038;2023-03-01T01:09:38;2.90;97.60
3071;DHT22;1546;47.208;9.038;2023-03-01T01:12:06;2.90;97.60
3071;DHT22;1546;47.208;9.038;2023-03-01T01:14:34;3.00;97.40
3071;DHT22;1546;47.208;9.038;2023-03-01T01:17:01;3.00;97.30
3071;DHT22;1546;47.208;9.038;2023-03-01T01:19:28;3.00;97.20
3071;DHT22;1546;47.208;9.038;2023-03-01T01:21:56;3.10;97.60
3071;DHT22;1546;47.208;9.038;2023-03-01T01:24:22;3.10;97.30
3071;DHT22;1546;47.208;9.038;2023-03-01T01:26:49;3.10;97.30
3071;DHT22;1546;47.208;9.038;2023-03-01T01:29:16;3.10;97.40
3071;DHT22;1546;47.208;9.038;2023-03-01T01:31:44;3.00;97.30
3071;DHT22;1546;47.208;9.038;2023-03-01T01:34:14;3.00;97.60
3071;DHT22;1546;47.208;9.038;2023-03-01T01:36:42;3.10;97.40
3071;DHT22;1546;47.208;9.038;2023-03-01T01:39:09;3.10;97.40
3071;DHT22;1546;47.208;9.038;2023-03-01T01:41:39;3.20;97.30
3071;DHT22;1546;47.208;9.038;2023-03-01T01:44:15;3.20;97.30
3071;DHT22;1546;47.208;9.038;2023-03-01T01:46:46;3.10;97.00
3071;DHT22;1546;47.208;9.038;2023-03-01T01:49:22;3.10;96.80
3071;DHT22;1546;47.208;9.038;2023-03-01T01:51:55;3.00;97.10
3071;DHT22;1546;47.208;9.038;2023-03-01T01:54:27;3.00;97.50
3071;DHT22;1546;47.208;9.038;2023-03-01T01:56:58;3.00;97.10
3071;DHT22;1546;47.208;9.038;2023-03-01T01:59:28;3.10;97.40
3071;DHT22;1546;47.208;9.038;2023-03-01T02:01:59;3.10;96.70
3071;DHT22;1546;47.208;9.038;2023-03-01T02:04:28;3.10;96.50
3071;DHT22;1546;47.208;9.038;2023-03-01T02:06:59;3.00;96.80
3071;DHT22;1546;47.208;9.038;2023-03-01T02:09:28;2.90;96.30
3071;DHT22;1546;47.208;9.038;2023-03-01T02:11:56;2.90;96.10
3071;DHT22;1546;47.208;9.038;2023-03-01T02:14:23;2.70;95.50
3071;DHT22;1546;47.208;9.038;2023-03-01T02:16:50;2.60;95.80
3071;DHT22;1546;47.208;9.038;2023-03-01T02:19:27;2.50;95.60
3071;DHT22;1546;47.208;9.038;2023-03-01T02:22:02;2.50;95.90
3071;DHT22;1546;47.208;9.038;2023-03-01T02:24:36;2.60;95.90
3071;DHT22;1546;47.208;9.038;2023-03-01T02:27:09;2.50;95.70
3071;DHT22;1546;47.208;9.038;2023-03-01T02:29:37;2.30;95.50
3071;DHT22;1546;47.208;9.038;2023-03-01T02:32:05;2.40;95.70
3071;DHT22;1546;47.208;9.038;2023-03-01T02:34:32;2.30;96.00
3071;DHT22;1546;47.208;9.038;2023-03-01T02:37:03;2.20;96.30
3071;DHT22;1546;47.208;9.038;2023-03-01T02:39:36;2.30;96.60
3071;DHT22;1546;47.208;9.038;2023-03-01T02:42:10;2.20;96.40
3071;DHT22;1546;47.208;9.038;2023-03-01T02:44:39;2.30;96.60
3071;DHT22;1546;47.208;9.038;2023-03-01T02:47:06;2.30;96.00
3071;DHT22;1546;47.208;9.038;2023-03-01T02:49:35;2.40;95.90
3071;DHT22;1546;47.208;9.038;2023-03-01T02:52:17;2.40;95.90
3071;DHT22;1546;47.208;9.038;2023-03-01T02:54:52;2.40;95.80
3071;DHT22;1546;47.208;9.038;2023-03-01T02:57:20;2.40;96.00
3071;DHT22;1546;47.208;9.038;2023-03-01T02:59:50;2.40;96.10
3071;DHT22;1546;47.208;9.038;2023-03-01T03:02:21;2.30;95.80
3071;DHT22;1546;47.208;9.038;2023-03-01T03:05:07;2.20;95.80
3071;DHT22;1546;47.208;9.038;2023-03-01T03:07:35;2.10;95.90
3071;DHT22;1546;47.208;9.038;2023-03-01T03:10:03;2.10;96.10
3071;DHT22;1546;47.208;9.038;2023-03-01T03:12:31;2.10;96.30
3071;DHT22;1546;47.208;9.038;2023-03-01T03:14:59;2.20;96.60
3071;DHT22;1546;47.208;9.038;2023-03-01T03:17:26;2.10;97.80
3071;DHT22;1546;47.208;9.038;2023-03-01T03:19:53;2.20;98.20
3071;DHT22;1546;47.208;9.038;2023-03-01T03:22:19;2.30;98.30
3071;DHT22;1546;47.208;9.038;2023-03-01T03:24:46;2.30;98.30
3071;DHT22;1546;47.208;9.038;2023-03-01T03:27:13;2.40;98.60
3071;DHT22;1546;47.208;9.038;2023-03-01T03:29:40;2.60;98.50
3071;DHT22;1546;47.208;9.038;2023-03-01T03:32:08;2.60;98.60
3071;DHT22;1546;47.208;9.038;2023-03-01T03:34:35;2.50;98.20
3071;DHT22;1546;47.208;9.038;2023-03-01T03:37:02;2.50;97.50
3071;DHT22;1546;47.208;9.038;2023-03-01T03:39:29;2.60;97.10
3071;DHT22;1546;47.208;9.038;2023-03-01T03:42:00;2.60;97.30
3071;DHT22;1546;47.208;9.038;2023-03-01T03:44:27;2.60;97.60
3071;DHT22;1546;47.208;9.038;2023-03-01T03:46:54;2.60;97.40
3071;DHT22;1546;47.208;9.038;2023-03-01T03:49:22;2.70;97.20
3071;DHT22;1546;47.208;9.038;2023-03-01T03:51:49;2.70;96.90
3071;DHT22;1546;47.208;9.038;2023-03-01T03:54:16;2.70;96.50
3071;DHT22;1546;47.208;9.038;2023-03-01T03:56:43;2.50;97.10
3071;DHT22;1546;47.208;9.038;2023-03-01T03:59:10;2.60;97.00
3071;DHT22;1546;47.208;9.038;2023-03-01T04:01:37;2.60;96.50
3071;DHT22;1546;47.208;9.038;2023-03-01T04:04:04;2.50;96.10
3071;DHT22;1546;47.208;9.038;2023-03-01T04:06:34;2.50;96.50
3071;DHT22;1546;47.208;9.038;2023-03-01T04:09:01;2.50;96.40
3071;DHT22;1546;47.208;9.038;2023-03-01T04:11:28;2.50;96.60
3071;DHT22;1546;47.208;9.038;2023-03-01T04:13:57;2.50;96.60
3071;DHT22;1546;47.208;9.038;2023-03-01T04:16:24;2.50;96.30
3071;DHT22;1546;47.208;9.038;2023-03-01T04:18:51;2.50;96.30
3071;DHT22;1546;47.208;9.038;2023-03-01T04:21:20;2.40;95.80
3071;DHT22;1546;47.208;9.038;2023-03-01T04:23:48;2.30;96.10
3071;DHT22;1546;47.208;9.038;2023-03-01T04:26:18;2.30;96.50
3071;DHT22;1546;47.208;9.038;2023-03-01T04:28:46;2.30;96.50
3071;DHT22;1546;47.208;9.038;2023-03-01T04:31:16;2.30;96.40
3071;DHT22;1546;47.208;9.038;2023-03-01T04:33:45;2.20;96.50
3071;DHT22;1546;47.208;9.038;2023-03-01T04:36:14;2.10;96.40
3071;DHT22;1546;47.208;9.038;2023-03-01T04:38:42;2.10;96.30
3071;DHT22;1546;47.208;9.038;2023-03-01T04:41:15;2.10;96.80
3071;DHT22;1546;47.208;9.038;2023-03-01T04:43:42;2.10;96.60
3071;DHT22;1546;47.208;9.038;2023-03-01T04:46:13;2.20;96.70
3071;DHT22;1546;47.208;9.038;2023-03-01T04:48:41;2.20;96.80
3071;DHT22;1546;47.208;9.038;2023-03-01T04:51:08;2.20;96.50
3071;DHT22;1546;47.208;9.038;2023-03-01T04:53:35;2.20;96.60
3071;DHT22;1546;47.208;9.038;2023-03-01T04:56:04;2.10;96.70
3071;DHT22;1546;47.208;9.038;2023-03-01T04:58:33;2.20;96.70
3071;DHT22;1546;47.208;9.038;2023-03-01T05:01:00;2.20;96.40
3071;DHT22;1546;47.208;9.038;2023-03-01T05:03:26;2.20;96.60
3071;DHT22;1546;47.208;9.038;2023-03-01T05:05:54;2.40;96.70
3071;DHT22;1546;47.208;9.038;2023-03-01T05:08:25;2.50;97.00
3071;DHT22;1546;47.208;9.038;2023-03-01T05:10:52;2.60;96.20
3071;DHT22;1546;47.208;9.038;2023-03-01T05:13:21;2.70;95.80
3071;DHT22;1546;47.208;9.038;2023-03-01T05:15:54;2.60;96.40
3071;DHT22;1546;47.208;9.038;2023-03-01T05:18:21;2.50;97.20
3071;DHT22;1546;47.208;9.038;2023-03-01T05:20:51;2.60;96.80
3071;DHT22;1546;47.208;9.038;2023-03-01T05:23:18;2.60;96.10
3071;DHT22;1546;47.208;9.038;2023-03-01T05:25:44;2.60;96.20
3071;DHT22;1546;47.208;9.038;2023-03-01T05:28:12;2.60;96.30
3071;DHT22;1546;47.208;9.038;2023-03-01T05:30:39;2.70;96.40
3071;DHT22;1546;47.208;9.038;2023-03-01T05:33:08;2.70;95.90
3071;DHT22;1546;47.208;9.038;2023-03-01T05:35:39;2.50;96.10
3071;DHT22;1546;47.208;9.038;2023-03-01T05:38:06;2.60;96.80
3071;DHT22;1546;47.208;9.038;2023-03-01T05:40:34;2.40;97.10
3071;DHT22;1546;47.208;9.038;2023-03-01T05:43:01;2.50;97.80
3071;DHT22;1546;47.208;9.038;2023-03-01T05:45:30;2.50;97.60
3071;DHT22;1546;47.208;9.038;2023-03-01T05:47:59;2.70;98.00
3071;DHT22;1546;47.208;9.038;2023-03-01T05:50:28;2.70;97.90
3071;DHT22;1546;47.208;9.038;2023-03-01T05:53:00;2.90;97.80
3071;DHT22;1546;47.208;9.038;2023-03-01T05:55:28;2.80;97.40
3071;DHT22;1546;47.208;9.038;2023-03-01T05:57:57;2.70;97.60
3071;DHT22;1546;47.208;9.038;2023-03-01T06:00:24;2.70;97.50
3071;DHT22;1546;47.208;9.038;2023-03-01T06:02:52;2.70;97.80
3071;DHT22;1546;47.208;9.038;2023-03-01T06:05:19;2.90;98.00
3071;DHT22;1546;47.208;9.038;2023-03-01T06:07:48;2.80;97.90
3071;DHT22;1546;47.208;9.038;2023-03-01T06:10:15;2.80;98.20
3071;DHT22;1546;47.208;9.038;2023-03-01T06:12:43;2.80;97.80
3071;DHT22;1546;47.208;9.038;2023-03-01T06:15:12;2.80;97.50
3071;DHT22;1546;47.208;9.038;2023-03-01T06:17:42;2.90;97.90
3071;DHT22;1546;47.208;9.038;2023-03-01T06:20:10;3.00;97.30
3071;DHT22;1546;47.208;9.038;2023-03-01T06:22:38;3.10;97.00
3071;DHT22;1546;47.208;9.038;2023-03-01T06:25:07;2.90;96.10
3071;DHT22;1546;47.208;9.038;2023-03-01T06:27:34;2.90;96.60
3071;DHT22;1546;47.208;9.038;2023-03-01T06:30:01;2.90;96.80
3071;DHT22;1546;47.208;9.038;2023-03-01T06:32:28;2.90;96.10
3071;DHT22;1546;47.208;9.038;2023-03-01T06:34:55;2.90;96.00
3071;DHT22;1546;47.208;9.038;2023-03-01T06:37:24;2.90;95.30
3071;DHT22;1546;47.208;9.038;2023-03-01T06:39:51;2.80;95.10
3071;DHT22;1546;47.208;9.038;2023-03-01T06:42:19;2.70;95.30
3071;DHT22;1546;47.208;9.038;2023-03-01T06:44:46;2.70;95.80
3071;DHT22;1546;47.208;9.038;2023-03-01T06:47:12;2.70;95.20
3071;DHT22;1546;47.208;9.038;2023-03-01T06:49:39;2.80;95.20
3071;DHT22;1546;47.208;9.038;2023-03-01T06:52:07;2.70;94.90
3071;DHT22;1546;47.208;9.038;2023-03-01T06:54:34;2.60;95.30
3071;DHT22;1546;47.208;9.038;2023-03-01T06:57:00;2.50;95.30
3071;DHT22;1546;47.208;9.038;2023-03-01T06:59:29;2.50;95.20
3071;DHT22;1546;47.208;9.038;2023-03-01T07:01:56;2.50;95.10
3071;DHT22;1546;47.208;9.038;2023-03-01T07:04:22;2.50;95.20
3071;DHT22;1546;47.208;9.038;2023-03-01T07:06:49;2.60;95.20
3071;DHT22;1546;47.208;9.038;2023-03-01T07:09:21;2.60;95.00
3071;DHT22;1546;47.208;9.038;2023-03-01T07:11:48;2.60;94.60
3071;DHT22;1546;47.208;9.038;2023-03-01T07:14:15;2.50;94.70
3071;DHT22;1546;47.208;9.038;2023-03-01T07:16:43;2.40;94.80
3071;DHT22;1546;47.208;9.038;2023-03-01T07:19:10;2.40;94.90
3071;DHT22;1546;47.208;9.038;2023-03-01T07:21:37;2.40;94.90
3071;DHT22;1546;47.208;9.038;2023-03-01T07:24:05;2.40;94.60
3071;DHT22;1546;47.208;9.038;2023-03-01T07:26:32;2.50;94.80
3071;DHT22;1546;47.208;9.038;2023-03-01T07:28:59;2.50;94.70
3071;DHT22;1546;47.208;9.038;2023-03-01T07:31:26;2.40;94.50
3071;DHT22;1546;47.208;9.038;2023-03-01T07:33:55;2.50;95.00
3071;DHT22;1546;47.208;9.038;2023-03-01T07:36:22;2.60;94.60
3071;DHT22;1546;47.208;9.038;2023-03-01T07:38:50;2.60;94.40
3071;DHT22;1546;47.208;9.038;2023-03-01T07:41:16;2.60;94.20
3071;DHT22;1546;47.208;9.038;2023-03-01T07:43:44;2.50;94.40
3071;DHT22;1546;47.208;9.038;2023-03-01T07:46:10;2.60;94.70
3071;DHT22;1546;47.208;9.038;2023-03-01T07:48:37;2.80;94.40
3071;DHT22;1546;47.208;9.038;2023-03-01T07:51:06;2.80;94.20
3071;DHT22;1546;47.208;9.038;2023-03-01T07:53:34;2.70;94.10
3071;DHT22;1546;47.208;9.038;2023-03-01T07:56:02;2.70;94.00
3071;DHT22;1546;47.208;9.038;2023-03-01T07:58:29;2.70;94.50
3071;DHT22;1546;47.208;9.038;2023-03-01T08:00:56;2.70;94.70
3071;DHT22;1546;47.208;9.038;2023-03-01T08:03:23;2.60;94.20
3071;DHT22;1546;47.208;9.038;2023-03-01T08:05:49;2.60;94.40
3071;DHT22;1546;47.208;9.038;2023-03-01T08:08:18;2.60;94.40
3071;DHT22;1546;47.208;9.038;2023-03-01T08:10:44;2.60;94.00
3071;DHT22;1546;47.208;9.038;2023-03-01T08:13:11;2.70;94.20
3071;DHT22;1546;47.208;9.038;2023-03-01T08:15:38;2.70;94.00
3071;DHT22;1546;47.208;9.038;2023-03-01T08:18:05;2.80;93.90
3071;DHT22;1546;47.208;9.038;2023-03-01T08:20:32;2.90;94.00
3071;DHT22;1546;47.208;9.038;2023-03-01T08:22:58;3.00;93.80
3071;DHT22;1546;47.208;9.038;2023-03-01T08:25:26;2.90;93.50
3071;DHT22;1546;47.208;9.038;2023-03-01T08:27:53;3.00;94.00
3071;DHT22;1546;47.208;9.038;2023-03-01T08:30:20;3.30;95.00
3071;DHT22;1546;47.208;9.038;2023-03-01T08:32:49;3.50;95.10
3071;DHT22;1546;47.208;9.038;2023-03-01T08:35:16;3.70;95.20
3071;DHT22;1546;47.208;9.038;2023-03-01T08:37:43;3.80;95.00
3071;DHT22;1546;47.208;9.038;2023-03-01T08:40:11;3.80;94.80
3071;DHT22;1546;47.208;9.038;2023-03-01T08:42:40;4.00;94.90
3071;DHT22;1546;47.208;9.038;2023-03-01T08:45:09;4.10;94.70
3071;DHT22;1546;47.208;9.038;2023-03-01T08:51:18;4.60;93.30
3071;DHT22;1546;47.208;9.038;2023-03-01T08:57:26;4.80;92.50
3071;DHT22;1546;47.208;9.038;2023-03-01T08:59:54;4.50;91.80
3071;DHT22;1546;47.208;9.038;2023-03-01T09:02:22;4.20;91.70
3071;DHT22;1546;47.208;9.038;2023-03-01T09:04:49;3.80;92.20
3071;DHT22;1546;47.208;9.038;2023-03-01T09:07:16;3.60;92.70
3071;DHT22;1546;47.208;9.038;2023-03-01T09:09:42;3.50;92.80
3071;DHT22;1546;47.208;9.038;2023-03-01T09:12:09;3.40;93.10
3071;DHT22;1546;47.208;9.038;2023-03-01T09:14:36;3.20;93.10
3071;DHT22;1546;47.208;9.038;2023-03-01T09:17:05;3.30;93.50
3071;DHT22;1546;47.208;9.038;2023-03-01T09:19:32;3.40;93.30
3071;DHT22;1546;47.208;9.038;2023-03-01T09:21:59;3.50;93.40
3071;DHT22;1546;47.208;9.038;2023-03-01T09:24:26;3.50;93.20
3071;DHT22;1546;47.208;9.038;2023-03-01T09:26:54;3.50;93.30
3071;DHT22;1546;47.208;9.038;2023-03-01T09:29:22;3.50;93.60
3071;DHT22;1546;47.208;9.038;2023-03-01T09:31:49;3.60;93.20
3071;DHT22;1546;47.208;9.038;2023-03-01T09:34:17;3.70;93.80
3071;DHT22;1546;47.208;9.038;2023-03-01T09:36:48;3.70;93.20
3071;DHT22;1546;47.208;9.038;2023-03-01T09:39:15;3.70;93.20
3071;DHT22;1546;47.208;9.038;2023-03-01T09:41:46;3.50;93.40
3071;DHT22;1546;47.208;9.038;2023-03-01T09:44:21;3.70;93.60
3071;DHT22;1546;47.208;9.038;2023-03-01T09:46:50;3.90;93.50
3071;DHT22;1546;47.208;9.038;2023-03-01T09:49:20;4.30;93.40
3071;DHT22;1546;47.208;9.038;2023-03-01T09:52:06;4.50;92.50
3071;DHT22;1546;47.208;9.038;2023-03-01T09:54:38;4.40;92.20
3071;DHT22;1546;47.208;9.038;2023-03-01T09:57:16;4.50;92.30
3071;DHT22;1546;47.208;9.038;2023-03-01T10:00:07;4.50;92.00
3071;DHT22;1546;47.208;9.038;2023-03-01T10:02:41;4.50;92.00
3071;DHT22;1546;47.208;9.038;2023-03-01T10:05:25;4.40;91.90
3071;DHT22;1546;47.208;9.038;2023-03-01T10:08:01;4.30;92.30
3071;DHT22;1546;47.208;9.038;2023-03-01T10:10:34;4.60;92.30
3071;DHT22;1546;47.208;9.038;2023-03-01T10:13:06;4.80;91.90
3071;DHT22;1546;47.208;9.038;2023-03-01T10:15:43;5.00;92.20
3071;DHT22;1546;47.208;9.038;2023-03-01T10:18:13;5.10;91.60
3071;DHT22;1546;47.208;9.038;2023-03-01T10:20:48;5.10;91.80
3071;DHT22;1546;47.208;9.038;2023-03-01T10:23:18;4.90;91.90
3071;DHT22;1546;47.208;9.038;2023-03-01T10:25:56;5.00;91.60
3071;DHT22;1546;47.208;9.038;2023-03-01T10:28:31;5.00;91.40
3071;DHT22;1546;47.208;9.038;2023-03-01T10:31:01;5.10;92.20
3071;DHT22;1546;47.208;9.038;2023-03-01T10:33:30;5.20;91.40
3071;DHT22;1546;47.208;9.038;2023-03-01T10:35:59;5.20;91.00
3071;DHT22;1546;47.208;9.038;2023-03-01T10:38:25;5.00;91.30
3071;DHT22;1546;47.208;9.038;2023-03-01T10:40:56;4.90;91.60
3071;DHT22;1546;47.208;9.038;2023-03-01T10:43:25;4.90;92.00
3071;DHT22;1546;47.208;9.038;2023-03-01T10:45:52;5.00;91.60
3071;DHT22;1546;47.208;9.038;2023-03-01T10:48:21;5.00;91.80
3071;DHT22;1546;47.208;9.038;2023-03-01T10:50:51;5.10;91.90
3071;DHT22;1546;47.208;9.038;2023-03-01T10:53:33;5.10;91.70
3071;DHT22;1546;47.208;9.038;2023-03-01T10:56:03;5.10;91.60
3071;DHT22;1546;47.208;9.038;2023-03-01T10:58:31;5.20;91.60
3071;DHT22;1546;47.208;9.038;2023-03-01T11:01:00;5.20;91.40
3071;DHT22;1546;47.208;9.038;2023-03-01T11:03:29;5.20;91.50
3071;DHT22;1546;47.208;9.038;2023-03-01T11:06:02;5.20;91.40
3071;DHT22;1546;47.208;9.038;2023-03-01T11:08:36;5.20;91.40
3071;DHT22;1546;47.208;9.038;2023-03-01T11:11:26;5.20;91.70
3071;DHT22;1546;47.208;9.038;2023-03-01T11:13:58;5.30;91.50
3071;DHT22;1546;47.208;9.038;2023-03-01T11:16:32;5.20;91.40
3071;DHT22;1546;47.208;9.038;2023-03-01T11:19:16;5.10;91.40
3071;DHT22;1546;47.208;9.038;2023-03-01T11:21:57;5.20;92.00
3071;DHT22;1546;47.208;9.038;2023-03-01T11:24:32;5.40;91.60
3071;DHT22;1546;47.208;9.038;2023-03-01T11:27:03;5.70;91.80
3071;DHT22;1546;47.208;9.038;2023-03-01T11:29:33;5.90;91.40
3071;DHT22;1546;47.208;9.038;2023-03-01T11:32:06;6.00;91.10
3071;DHT22;1546;47.208;9.038;2023-03-01T11:34:40;6.00;91.00
3071;DHT22;1546;47.208;9.038;2023-03-01T11:37:16;6.00;90.80
3071;DHT22;1546;47.208;9.038;2023-03-01T11:39:56;5.70;90.80
3071;DHT22;1546;47.208;9.038;2023-03-01T11:42:35;5.90;91.20
3071;DHT22;1546;47.208;9.038;2023-03-01T11:45:08;5.70;90.70
3071;DHT22;1546;47.208;9.038;2023-03-01T11:47:51;5.30;91.20
3071;DHT22;1546;47.208;9.038;2023-03-01T11:50:26;4.90;91.60
3071;DHT22;1546;47.208;9.038;2023-03-01T11:53:03;4.60;92.30
3071;DHT22;1546;47.208;9.038;2023-03-01T11:55:52;4.50;92.50
3071;DHT22;1546;47.208;9.038;2023-03-01T11:58:31;4.40;92.90
3071;DHT22;1546;47.208;9.038;2023-03-01T12:01:24;4.30;92.90
3071;DHT22;1546;47.208;9.038;2023-03-01T12:04:11;4.40;93.30
3071;DHT22;1546;47.208;9.038;2023-03-01T12:06:52;4.80;92.60
3071;DHT22;1546;47.208;9.038;2023-03-01T12:09:36;5.00;92.80
3071;DHT22;1546;47.208;9.038;2023-03-01T12:12:26;6.50;93.00
3071;DHT22;1546;47.208;9.038;2023-03-01T12:15:03;5.60;91.80
3071;DHT22;1546;47.208;9.038;2023-03-01T12:18:05;5.80;91.50
3071;DHT22;1546;47.208;9.038;2023-03-01T12:20:41;5.80;90.90
3071;DHT22;1546;47.208;9.038;2023-03-01T12:26:20;5.30;91.70
3071;DHT22;1546;47.208;9.038;2023-03-01T12:28:59;5.40;92.10
3071;DHT22;1546;47.208;9.038;2023-03-01T12:31:44;5.50;91.30
3071;DHT22;1546;47.208;9.038;2023-03-01T12:34:38;5.50;91.80
3071;DHT22;1546;47.208;9.038;2023-03-01T12:37:21;5.90;91.60
3071;DHT22;1546;47.208;9.038;2023-03-01T12:39:58;5.90;91.00
3071;DHT22;1546;47.208;9.038;2023-03-01T12:42:34;5.90;91.40
3071;DHT22;1546;47.208;9.038;2023-03-01T12:45:22;5.90;91.20
3071;DHT22;1546;47.208;9.038;2023-03-01T12:48:03;5.80;91.10
3071;DHT22;1546;47.208;9.038;2023-03-01T12:50:40;5.50;91.10
3071;DHT22;1546;47.208;9.038;2023-03-01T12:53:24;5.40;91.40
3071;DHT22;1546;47.208;9.038;2023-03-01T12:55:52;5.50;91.80
3071;DHT22;1546;47.208;9.038;2023-03-01T12:58:25;5.30;91.90
3071;DHT22;1546;47.208;9.038;2023-03-01T13:01:14;5.60;91.80
3071;DHT22;1546;47.208;9.038;2023-03-01T13:04:01;5.60;91.70
3071;DHT22;1546;47.208;9.038;2023-03-01T13:06:35;5.80;91.90
3071;DHT22;1546;47.208;9.038;2023-03-01T13:09:12;5.90;91.20
3071;DHT22;1546;47.208;9.038;2023-03-01T13:11:41;6.00;91.70
3071;DHT22;1546;47.208;9.038;2023-03-01T13:14:36;6.10;91.40
3071;DHT22;1546;47.208;9.038;2023-03-01T13:17:31;6.20;90.90
3071;DHT22;1546;47.208;9.038;2023-03-01T13:19:59;5.90;90.90
3071;DHT22;1546;47.208;9.038;2023-03-01T13:22:28;5.90;91.00
3071;DHT22;1546;47.208;9.038;2023-03-01T13:25:13;5.90;90.90
3071;DHT22;1546;47.208;9.038;2023-03-01T13:27:40;6.10;91.00
3071;DHT22;1546;47.208;9.038;2023-03-01T13:30:40;6.30;90.50
3071;DHT22;1546;47.208;9.038;2023-03-01T13:33:40;6.50;90.90
3071;DHT22;1546;47.208;9.038;2023-03-01T13:36:08;6.50;90.20
3071;DHT22;1546;47.208;9.038;2023-03-01T13:38:45;6.40;90.60
3071;DHT22;1546;47.208;9.038;2023-03-01T13:41:13;6.30;90.70
3071;DHT22;1546;47.208;9.038;2023-03-01T13:43:41;6.30;90.50
3071;DHT22;1546;47.208;9.038;2023-03-01T13:46:12;6.20;90.40
3071;DHT22;1546;47.208;9.038;2023-03-01T13:48:45;6.20;91.00
3071;DHT22;1546;47.208;9.038;2023-03-01T13:51:14;6.10;91.00
3071;DHT22;1546;47.208;9.038;2023-03-01T13:53:43;6.40;91.20
3071;DHT22;1546;47.208;9.038;2023-03-01T13:56:13;6.80;90.50
3071;DHT22;1546;47.208;9.038;2023-03-01T13:58:48;6.90;90.20
3071;DHT22;1546;47.208;9.038;2023-03-01T14:01:24;6.80;90.00
3071;DHT22;1546;47.208;9.038;2023-03-01T14:03:53;6.40;90.20
3071;DHT22;1546;47.208;9.038;2023-03-01T14:06:22;6.40;90.80
3071;DHT22;1546;47.208;9.038;2023-03-01T14:08:51;6.30;90.50
3071;DHT22;1546;47.208;9.038;2023-03-01T14:14:36;5.90;91.20
3071;DHT22;1546;47.208;9.038;2023-03-01T14:20:02;6.00;91.20
3071;DHT22;1546;47.208;9.038;2023-03-01T14:22:33;6.10;91.00
3071;DHT22;1546;47.208;9.038;2023-03-01T14:25:03;6.20;90.90
3071;DHT22;1546;47.208;9.038;2023-03-01T14:27:35;6.10;90.80
3071;DHT22;1546;47.208;9.038;2023-03-01T14:30:12;5.80;91.10
3071;DHT22;1546;47.208;9.038;2023-03-01T14:32:41;5.90;91.60
3071;DHT22;1546;47.208;9.038;2023-03-01T14:35:20;5.90;91.30
3071;DHT22;1546;47.208;9.038;2023-03-01T14:37:47;5.60;91.50
3071;DHT22;1546;47.208;9.038;2023-03-01T14:40:23;5.60;91.60
3071;DHT22;1546;47.208;9.038;2023-03-01T14:42:51;5.80;92.00
3071;DHT22;1546;47.208;9.038;2023-03-01T14:45:19;5.70;91.50
3071;DHT22;1546;47.208;9.038;2023-03-01T14:47:46;5.60;91.50
3071;DHT22;1546;47.208;9.038;2023-03-01T14:50:23;5.70;91.60
3071;DHT22;1546;47.208;9.038;2023-03-01T14:52:54;5.70;91.50
3071;DHT22;1546;47.208;9.038;2023-03-01T14:55:26;5.70;91.50
3071;DHT22;1546;47.208;9.038;2023-03-01T14:57:53;5.90;91.40
3071;DHT22;1546;47.208;9.038;2023-03-01T15:00:22;6.00;91.80
3071;DHT22;1546;47.208;9.038;2023-03-01T15:02:51;6.10;91.40
3071;DHT22;1546;47.208;9.038;2023-03-01T15:05:26;5.70;91.30
3071;DHT22;1546;47.208;9.038;2023-03-01T15:07:55;5.40;91.70
3071;DHT22;1546;47.208;9.038;2023-03-01T15:10:25;5.10;92.00
3071;DHT22;1546;47.208;9.038;2023-03-01T15:12:53;4.90;92.40
3071;DHT22;1546;47.208;9.038;2023-03-01T15:15:32;5.00;92.70
3071;DHT22;1546;47.208;9.038;2023-03-01T15:18:01;5.10;92.80
3071;DHT22;1546;47.208;9.038;2023-03-01T15:20:30;4.90;92.50
3071;DHT22;1546;47.208;9.038;2023-03-01T15:23:02;4.90;92.60
3071;DHT22;1546;47.208;9.038;2023-03-01T15:25:31;4.80;92.70
3071;DHT22;1546;47.208;9.038;2023-03-01T15:28:01;4.80;93.00
3071;DHT22;1546;47.208;9.038;2023-03-01T15:30:31;4.90;92.90
3071;DHT22;1546;47.208;9.038;2023-03-01T15:33:29;4.90;92.90
3071;DHT22;1546;47.208;9.038;2023-03-01T15:35:59;4.90;92.60
3071;DHT22;1546;47.208;9.038;2023-03-01T15:38:32;4.80;92.80
3071;DHT22;1546;47.208;9.038;2023-03-01T15:41:01;4.70;93.00
3071;DHT22;1546;47.208;9.038;2023-03-01T15:43:40;4.70;93.10
3071;DHT22;1546;47.208;9.038;2023-03-01T15:46:20;4.60;92.90
3071;DHT22;1546;47.208;9.038;2023-03-01T15:48:51;4.70;93.50
3071;DHT22;1546;47.208;9.038;2023-03-01T15:51:26;4.70;93.00
3071;DHT22;1546;47.208;9.038;2023-03-01T15:53:55;4.70;93.00
3071;DHT22;1546;47.208;9.038;2023-03-01T15:56:23;4.70;93.00
3071;DHT22;1546;47.208;9.038;2023-03-01T15:58:50;4.60;93.20
3071;DHT22;1546;47.208;9.038;2023-03-01T16:01:17;4.40;93.10
3071;DHT22;1546;47.208;9.038;2023-03-01T16:03:44;4.40;93.50
3071;DHT22;1546;47.208;9.038;2023-03-01T16:06:12;4.30;93.50
3071;DHT22;1546;47.208;9.038;2023-03-01T16:08:40;4.10;93.80
3071;DHT22;1546;47.208;9.038;2023-03-01T16:11:14;4.00;94.00
3071;DHT22;1546;47.208;9.038;2023-03-01T16:13:42;3.90;94.30
3071;DHT22;1546;47.208;9.038;2023-03-01T16:16:10;4.00;94.30
3071;DHT22;1546;47.208;9.038;2023-03-01T16:18:40;4.00;94.20
3071;DHT22;1546;47.208;9.038;2023-03-01T16:21:12;4.00;94.20
3071;DHT22;1546;47.208;9.038;2023-03-01T16:23:43;3.90;94.40
3071;DHT22;1546;47.208;9.038;2023-03-01T16:26:11;3.90;94.40
3071;DHT22;1546;47.208;9.038;2023-03-01T16:28:39;3.80;94.70
3071;DHT22;1546;47.208;9.038;2023-03-01T16:31:06;3.80;94.60
3071;DHT22;1546;47.208;9.038;2023-03-01T16:33:33;3.80;94.90
3071;DHT22;1546;47.208;9.038;2023-03-01T16:36:01;3.90;94.90
3071;DHT22;1546;47.208;9.038;2023-03-01T16:38:30;3.90;94.80
3071;DHT22;1546;47.208;9.038;2023-03-01T16:40:58;3.80;94.70
3071;DHT22;1546;47.208;9.038;2023-03-01T16:43:25;3.80;95.00
3071;DHT22;1546;47.208;9.038;2023-03-01T16:45:52;3.70;94.80
3071;DHT22;1546;47.208;9.038;2023-03-01T16:48:19;3.70;95.00
3071;DHT22;1546;47.208;9.038;2023-03-01T16:50:55;3.70;95.00
3071;DHT22;1546;47.208;9.038;2023-03-01T16:53:22;3.70;95.10
3071;DHT22;1546;47.208;9.038;2023-03-01T16:55:53;3.60;95.10